createdAt,value
2023-02-12T00:00:51.918Z,18.30
2023-02-12T00:03:19.632Z,17.93
2023-02-12T00:05:47.135Z,19.33
2023-02-12T00:08:16.293Z,13.30
2023-02-12T00:10:44.406Z,19.00
2023-02-12T00:13:12.662Z,13.13
2023-02-12T00:15:40.920Z,17.17
2023-02-12T00:18:09.874Z,16.40
2023-02-12T00:20:38.620Z,17.20
2023-02-12T00:23:06.848Z,16.53
2023-02-12T00:25:34.666Z,16.17
2023-02-12T00:28:02.148Z,14.80
2023-02-12T00:30:29.727Z,22.00
2023-02-12T00:32:57.309Z,19.40
2023-02-12T00:35:26.014Z,24.23
2023-02-12T00:37:53.482Z,18.40
2023-02-12T00:40:21.210Z,19.00
2023-02-12T00:42:48.698Z,16.00
2023-02-12T00:45:16.171Z,19.27
2023-02-12T00:47:43.654Z,22.17
2023-02-12T00:50:12.182Z,18.20
2023-02-12T00:52:40.975Z,15.00
2023-02-12T00:55:09.209Z,17.23
2023-02-12T00:57:36.702Z,18.17
2023-02-12T01:00:04.793Z,19.07
2023-02-12T01:02:32.393Z,20.33
2023-02-12T01:04:59.897Z,20.13
2023-02-12T01:07:27.336Z,18.33
2023-02-12T01:09:56.072Z,22.87
2023-02-12T01:12:23.502Z,16.70
2023-02-12T01:14:50.926Z,15.33
2023-02-12T01:17:18.370Z,18.70
2023-02-12T01:19:45.821Z,20.70
2023-02-12T01:22:13.272Z,16.03
2023-02-12T01:24:40.744Z,15.23
2023-02-12T01:27:09.484Z,17.67
2023-02-12T01:29:37.006Z,19.27
2023-02-12T01:32:04.926Z,18.07
2023-02-12T01:34:32.465Z,15.37
2023-02-12T01:36:59.902Z,15.00
2023-02-12T01:39:27.308Z,18.87
2023-02-12T01:41:54.724Z,16.50
2023-02-12T01:44:25.925Z,15.03
2023-02-12T01:46:57.649Z,16.83
2023-02-12T01:49:29.945Z,14.43
2023-02-12T01:52:02.147Z,18.13
2023-02-12T01:54:30.205Z,18.73
2023-02-12T01:56:58.094Z,17.67
2023-02-12T01:59:27.344Z,20.60
2023-02-12T02:01:55.786Z,18.37
2023-02-12T02:04:28.414Z,19.17
2023-02-12T02:06:59.274Z,17.77
2023-02-12T02:09:28.010Z,17.20
2023-02-12T02:12:12.690Z,15.03
2023-02-12T02:14:42.847Z,15.60
2023-02-12T02:17:41.656Z,16.50
2023-02-12T02:20:42.821Z,20.73
2023-02-12T02:23:26.961Z,16.67
2023-02-12T02:26:22.388Z,17.90
2023-02-12T02:29:05.607Z,18.03
2023-02-12T02:31:42.104Z,19.80
2023-02-12T02:34:16.865Z,16.30
2023-02-12T02:37:00.029Z,21.30
2023-02-12T02:39:36.068Z,15.77
2023-02-12T02:42:11.159Z,23.03
2023-02-12T02:44:43.369Z,13.33
2023-02-12T02:47:14.978Z,17.07
2023-02-12T02:49:47.088Z,20.03
2023-02-12T02:52:21.544Z,15.60
2023-02-12T02:54:54.251Z,16.63
2023-02-12T02:57:27.210Z,20.67
2023-02-12T02:59:59.299Z,19.17
2023-02-12T03:02:32.278Z,14.87
2023-02-12T03:05:04.435Z,14.53
2023-02-12T03:07:37.716Z,21.70
2023-02-12T03:10:12.197Z,18.33
2023-02-12T03:12:44.815Z,19.80
2023-02-12T03:15:19.156Z,17.27
2023-02-12T03:17:50.162Z,15.10
2023-02-12T03:20:21.499Z,21.40
2023-02-12T03:22:54.660Z,22.63
2023-02-12T03:25:26.676Z,18.73
2023-02-12T03:28:00.441Z,16.70
2023-02-12T03:30:41.272Z,13.63
2023-02-12T03:33:18.003Z,14.93
2023-02-12T03:35:54.516Z,21.63
2023-02-12T03:38:31.496Z,20.17
2023-02-12T03:41:05.145Z,15.30
2023-02-12T03:43:39.596Z,19.77
2023-02-12T03:46:16.327Z,17.00
2023-02-12T03:48:52.960Z,24.97
2023-02-12T03:51:25.707Z,20.47
2023-02-12T03:53:53.601Z,19.37
2023-02-12T03:56:25.411Z,20.83
2023-02-12T03:58:52.884Z,20.30
2023-02-12T04:01:20.520Z,19.20
2023-02-12T04:03:49.542Z,16.97
2023-02-12T04:06:21.077Z,19.40
2023-02-12T04:08:48.664Z,20.93
2023-02-12T04:11:26.927Z,15.53
2023-02-12T04:14:09.188Z,17.00
2023-02-12T04:16:44.262Z,19.00
2023-02-12T04:19:21.348Z,16.43
2023-02-12T04:21:58.476Z,22.30
2023-02-12T04:24:34.841Z,18.23
2023-02-12T04:27:10.474Z,20.13
2023-02-12T04:29:49.409Z,21.33
2023-02-12T04:32:21.752Z,23.37
2023-02-12T04:34:58.713Z,22.17
2023-02-12T04:37:32.529Z,17.17
2023-02-12T04:40:01.481Z,18.57
2023-02-12T04:42:29.001Z,19.57
2023-02-12T04:44:56.444Z,20.53
2023-02-12T04:47:23.866Z,23.03
2023-02-12T04:49:52.692Z,19.27
2023-02-12T04:52:20.119Z,20.20
2023-02-12T04:54:47.576Z,20.63
2023-02-12T04:57:15.053Z,21.40
2023-02-12T04:59:42.508Z,19.80
2023-02-12T05:02:10.236Z,20.23
2023-02-12T05:04:37.705Z,20.03
2023-02-12T05:07:06.506Z,16.83
2023-02-12T05:09:34.084Z,18.53
2023-02-12T05:12:01.544Z,22.13
2023-02-12T05:14:29.651Z,24.47
2023-02-12T05:16:57.118Z,20.93
2023-02-12T05:19:24.539Z,16.80
2023-02-12T05:21:52.239Z,19.03
2023-02-12T05:24:20.995Z,21.83
2023-02-12T05:26:50.034Z,23.47
2023-02-12T05:29:17.852Z,17.50
2023-02-12T05:31:45.790Z,20.17
2023-02-12T05:34:14.701Z,25.07
2023-02-12T05:36:42.206Z,21.77
2023-02-12T05:39:09.629Z,20.60
2023-02-12T05:41:38.411Z,22.57
2023-02-12T05:44:06.536Z,25.73
2023-02-12T05:46:34.923Z,17.43
2023-02-12T05:49:02.382Z,21.70
2023-02-12T05:51:32.107Z,21.30
2023-02-12T05:54:01.192Z,20.93
2023-02-12T05:56:30.647Z,19.30
2023-02-12T05:59:02.255Z,19.13
2023-02-12T06:01:32.057Z,18.13
2023-02-12T06:04:00.617Z,19.23
2023-02-12T06:06:28.301Z,19.93
2023-02-12T06:08:55.859Z,23.50
2023-02-12T06:11:23.948Z,18.03
2023-02-12T06:13:51.762Z,17.37
2023-02-12T06:16:22.785Z,22.10
2023-02-12T06:18:51.187Z,21.07
2023-02-12T06:21:20.028Z,23.47
2023-02-12T06:23:48.085Z,23.17
2023-02-12T06:26:16.448Z,22.37
2023-02-12T06:28:43.932Z,21.03
2023-02-12T06:31:20.385Z,19.47
2023-02-12T06:33:50.138Z,21.93
2023-02-12T06:36:17.897Z,23.53
2023-02-12T06:38:45.461Z,20.60
2023-02-12T06:41:13.414Z,23.13
2023-02-12T06:43:40.915Z,19.83
2023-02-12T06:46:09.107Z,18.63
2023-02-12T06:48:36.814Z,21.40
2023-02-12T06:51:11.147Z,19.13
2023-02-12T06:53:38.904Z,28.17
2023-02-12T06:56:11.207Z,22.27
2023-02-12T06:58:39.575Z,21.70
2023-02-12T07:01:13.870Z,23.63
2023-02-12T07:03:42.140Z,23.37
2023-02-12T07:06:11.792Z,18.43
2023-02-12T07:08:39.814Z,18.50
2023-02-12T07:11:07.646Z,22.43
2023-02-12T07:13:35.685Z,27.73
2023-02-12T07:16:07.585Z,17.90
2023-02-12T07:18:35.573Z,26.20
2023-02-12T07:21:03.414Z,20.53
2023-02-12T07:23:32.308Z,22.03
2023-02-12T07:26:01.922Z,21.53
2023-02-12T07:28:33.482Z,20.80
2023-02-12T07:31:01.617Z,21.90
2023-02-12T07:33:29.043Z,24.03
2023-02-12T07:35:56.926Z,19.97
2023-02-12T07:38:24.765Z,22.27
2023-02-12T07:40:53.622Z,22.17
2023-02-12T07:43:21.039Z,26.47
2023-02-12T07:45:48.570Z,17.77
2023-02-12T07:48:16.047Z,20.70
2023-02-12T07:50:43.482Z,19.40
2023-02-12T07:53:10.887Z,21.57
2023-02-12T07:55:38.338Z,18.40
2023-02-12T07:58:07.087Z,22.10
2023-02-12T08:00:34.665Z,17.93
2023-02-12T08:03:02.097Z,21.93
2023-02-12T08:05:29.711Z,25.20
2023-02-12T08:07:57.140Z,18.40
2023-02-12T08:10:24.674Z,17.53
2023-02-12T08:12:52.117Z,19.37
2023-02-12T08:15:20.913Z,20.77
2023-02-12T08:17:48.380Z,22.40
2023-02-12T08:20:16.061Z,17.20
2023-02-12T08:22:43.529Z,21.03
2023-02-12T08:25:10.997Z,19.43
2023-02-12T08:27:38.409Z,20.07
2023-02-12T08:30:06.544Z,23.17
2023-02-12T08:32:35.304Z,18.83
2023-02-12T08:35:02.741Z,14.27
2023-02-12T08:37:30.177Z,24.73
2023-02-12T08:39:57.582Z,18.47
2023-02-12T08:42:25.725Z,23.10
2023-02-12T08:44:53.133Z,19.87
2023-02-12T08:47:20.586Z,20.10
2023-02-12T08:49:49.437Z,16.23
2023-02-12T08:52:16.873Z,16.40
2023-02-12T08:54:44.358Z,16.90
2023-02-12T08:57:11.799Z,17.37
2023-02-12T08:59:39.241Z,16.70
2023-02-12T09:02:08.902Z,20.03
2023-02-12T09:04:36.676Z,19.57
2023-02-12T09:07:05.523Z,15.60
2023-02-12T09:09:33.012Z,19.67
2023-02-12T09:12:00.492Z,47.87
2023-02-12T09:14:27.971Z,50.87
2023-02-12T09:16:57.329Z,40.73
2023-02-12T09:19:24.901Z,23.37
2023-02-12T09:21:55.871Z,25.47
2023-02-12T09:24:27.416Z,23.20
2023-02-12T09:26:55.065Z,22.07
2023-02-12T09:29:22.470Z,21.70
2023-02-12T09:31:50.185Z,22.37
2023-02-12T09:34:17.674Z,19.50
2023-02-12T09:36:45.197Z,18.93
2023-02-12T09:39:12.842Z,19.53
2023-02-12T09:42:17.859Z,17.60
2023-02-12T09:44:51.487Z,19.27
2023-02-12T09:47:27.229Z,16.07
2023-02-12T09:50:13.593Z,16.83
2023-02-12T09:52:41.786Z,12.50
2023-02-12T09:55:15.633Z,16.37
2023-02-12T09:57:45.394Z,12.37
2023-02-12T10:00:17.436Z,12.77
2023-02-12T10:02:45.012Z,15.03
2023-02-12T10:05:18.469Z,14.37
2023-02-12T10:08:02.309Z,16.17
2023-02-12T10:10:44.405Z,19.77
2023-02-12T10:13:23.782Z,19.90
2023-02-12T10:15:59.868Z,19.90
2023-02-12T10:18:46.968Z,22.17
2023-02-12T10:21:30.430Z,17.43
2023-02-12T10:24:17.048Z,17.53
2023-02-12T10:26:49.114Z,21.50
2023-02-12T10:29:22.365Z,24.07
2023-02-12T10:31:54.027Z,24.00
2023-02-12T10:34:24.699Z,19.53
2023-02-12T10:36:55.820Z,19.90
2023-02-12T10:39:25.939Z,20.33
2023-02-12T10:41:59.725Z,17.67
2023-02-12T10:44:28.800Z,21.23
2023-02-12T10:46:56.465Z,19.80
2023-02-12T10:49:24.331Z,16.17
2023-02-12T10:52:01.613Z,18.83
2023-02-12T10:54:37.888Z,25.43
2023-02-12T10:57:11.413Z,19.83
2023-02-12T10:59:40.522Z,21.60
2023-02-12T11:02:20.230Z,17.43
2023-02-12T11:04:48.049Z,17.23
2023-02-12T11:07:15.458Z,19.00
2023-02-12T11:09:46.228Z,19.07
2023-02-12T11:12:21.878Z,16.40
2023-02-12T11:14:53.374Z,12.95
2023-02-12T11:17:26.752Z,16.90
2023-02-12T11:20:09.737Z,15.63
2023-02-12T11:22:37.779Z,18.03
2023-02-12T11:25:16.870Z,16.77
2023-02-12T11:27:45.177Z,16.70
2023-02-12T11:30:18.355Z,18.90
2023-02-12T11:32:46.592Z,14.40
2023-02-12T11:35:18.362Z,16.13
2023-02-12T11:37:47.894Z,17.33
2023-02-12T11:40:20.829Z,17.57
2023-02-12T11:42:52.466Z,17.30
2023-02-12T11:45:23.619Z,12.30
2023-02-12T11:47:52.282Z,16.17
2023-02-12T11:50:27.261Z,14.63
2023-02-12T11:52:58.578Z,15.37
2023-02-12T11:55:28.429Z,16.33
2023-02-12T11:58:03.712Z,15.40
2023-02-12T12:00:37.485Z,15.23
2023-02-12T12:03:12.099Z,14.67
2023-02-12T12:05:45.499Z,13.60
2023-02-12T12:08:20.643Z,13.30
2023-02-12T12:10:52.470Z,15.50
2023-02-12T12:13:26.055Z,13.67
2023-02-12T12:16:18.657Z,11.37
2023-02-12T12:19:07.460Z,14.03
2023-02-12T12:21:41.635Z,12.87
2023-02-12T12:24:14.649Z,14.90
2023-02-12T12:26:47.264Z,12.87
2023-02-12T12:29:20.793Z,11.13
2023-02-12T12:31:53.496Z,11.97
2023-02-12T12:34:23.397Z,14.60
2023-02-12T12:37:12.007Z,15.57
2023-02-12T12:39:49.648Z,14.43
2023-02-12T12:42:57.692Z,17.47
2023-02-12T12:45:48.493Z,13.60
2023-02-12T12:48:26.550Z,15.57
2023-02-12T12:51:10.071Z,14.80
2023-02-12T12:53:50.619Z,14.80
2023-02-12T12:56:38.363Z,16.10
2023-02-12T12:59:26.823Z,13.60
2023-02-12T13:02:18.644Z,14.30
2023-02-12T13:05:05.464Z,11.73
2023-02-12T13:07:47.394Z,10.83
2023-02-12T13:10:24.125Z,12.03
2023-02-12T13:13:05.398Z,10.40
2023-02-12T13:15:40.791Z,13.97
2023-02-12T13:18:18.858Z,11.37
2023-02-12T13:20:53.653Z,9.93
2023-02-12T13:23:27.076Z,8.10
2023-02-12T13:26:04.167Z,6.83
2023-02-12T13:28:36.271Z,10.53
2023-02-12T13:31:30.081Z,5.60
2023-02-12T13:33:59.010Z,9.13
2023-02-12T13:36:27.817Z,7.27
2023-02-12T13:38:59.454Z,8.10
2023-02-12T13:41:28.251Z,7.70
2023-02-12T13:44:05.965Z,8.03
2023-02-12T13:46:46.146Z,8.10
2023-02-12T13:49:27.120Z,6.20
2023-02-12T13:52:02.155Z,6.87
2023-02-12T13:54:46.639Z,7.27
2023-02-12T13:57:16.437Z,6.87
2023-02-12T13:59:49.828Z,6.63
2023-02-12T14:02:49.458Z,6.13
2023-02-12T14:05:29.431Z,4.07
2023-02-12T14:08:00.792Z,4.00
2023-02-12T14:10:31.999Z,3.93
2023-02-12T14:13:13.055Z,5.47
2023-02-12T14:15:44.522Z,4.90
2023-02-12T14:18:34.724Z,7.10
2023-02-12T14:21:44.020Z,5.87
2023-02-12T14:24:51.447Z,7.30
2023-02-12T14:27:30.142Z,5.93
2023-02-12T14:30:27.531Z,7.17
2023-02-12T14:33:25.116Z,5.20
2023-02-12T14:36:21.122Z,6.80
2023-02-12T14:38:59.363Z,6.63
2023-02-12T14:41:41.857Z,6.57
2023-02-12T14:44:42.117Z,7.77
2023-02-12T14:47:17.263Z,7.57
2023-02-12T14:49:47.783Z,9.30
2023-02-12T14:52:19.492Z,7.70
2023-02-12T14:54:50.636Z,10.13
2023-02-12T14:57:26.985Z,7.03
2023-02-12T14:59:57.168Z,9.70
2023-02-12T15:02:27.067Z,9.73
2023-02-12T15:04:59.259Z,11.50
2023-02-12T15:07:32.611Z,9.77
2023-02-12T15:10:10.025Z,6.83
2023-02-12T15:12:44.151Z,7.83
2023-02-12T15:15:22.301Z,8.60
2023-02-12T15:17:58.948Z,8.63
2023-02-12T15:20:35.386Z,7.93
2023-02-12T15:23:04.364Z,7.53
2023-02-12T15:25:33.405Z,10.40
2023-02-12T15:28:05.504Z,8.30
2023-02-12T15:30:36.003Z,8.40
2023-02-12T15:33:06.619Z,7.70
2023-02-12T15:35:37.007Z,7.83
2023-02-12T15:38:07.559Z,7.37
2023-02-12T15:40:35.952Z,9.03
2023-02-12T15:43:06.298Z,10.90
2023-02-12T15:45:35.786Z,7.97
2023-02-12T15:48:13.172Z,9.20
2023-02-12T15:50:51.005Z,6.87
2023-02-12T15:53:19.211Z,9.53
2023-02-12T15:55:48.541Z,8.67
2023-02-12T15:58:23.670Z,7.70
2023-02-12T16:00:52.492Z,7.23
2023-02-12T16:03:22.007Z,7.50
2023-02-12T16:05:50.516Z,7.87
2023-02-12T16:08:19.990Z,8.63
2023-02-12T16:10:50.825Z,8.73
2023-02-12T16:13:20.426Z,6.27
2023-02-12T16:16:05.505Z,6.03
2023-02-12T16:18:33.006Z,7.13
2023-02-12T16:21:07.593Z,4.60
2023-02-12T16:23:36.085Z,5.70
2023-02-12T16:26:03.842Z,5.30
2023-02-12T16:28:33.658Z,5.63
2023-02-12T16:31:14.638Z,5.30
2023-02-12T16:33:47.807Z,5.30
2023-02-12T16:36:30.344Z,4.73
2023-02-12T16:38:59.721Z,6.80
2023-02-12T16:41:31.033Z,4.47
2023-02-12T16:44:27.064Z,5.93
2023-02-12T16:46:57.929Z,4.70
2023-02-12T16:49:27.318Z,5.10
2023-02-12T16:52:14.966Z,5.50
2023-02-12T16:54:42.462Z,9.70
2023-02-12T16:57:12.095Z,7.43
2023-02-12T16:59:43.463Z,4.87
2023-02-12T17:02:15.606Z,6.23
2023-02-12T17:04:43.628Z,6.17
2023-02-12T17:07:19.406Z,5.23
2023-02-12T17:09:46.802Z,11.20
2023-02-12T17:12:14.414Z,6.30
2023-02-12T17:14:41.986Z,5.73
2023-02-12T17:17:09.566Z,4.43
2023-02-12T17:19:38.396Z,6.53
2023-02-12T17:22:08.914Z,6.03
2023-02-12T17:24:36.435Z,4.80
2023-02-12T17:27:03.959Z,5.13
2023-02-12T17:29:31.680Z,5.77
2023-02-12T17:31:59.206Z,4.67
2023-02-12T17:34:28.750Z,6.13
2023-02-12T17:36:59.023Z,9.30
2023-02-12T17:39:26.473Z,6.83
2023-02-12T17:41:53.938Z,6.80
2023-02-12T17:44:21.367Z,7.80
2023-02-12T17:46:48.796Z,8.80
2023-02-12T17:49:16.535Z,7.97
2023-02-12T17:51:43.949Z,10.20
2023-02-12T17:54:13.920Z,10.20
2023-02-12T17:56:41.322Z,8.47
2023-02-12T17:59:08.735Z,7.50
2023-02-12T18:01:36.399Z,10.23
2023-02-12T18:04:03.906Z,8.30
2023-02-12T18:06:32.225Z,11.70
2023-02-12T18:09:01.645Z,10.63
2023-02-12T18:11:32.133Z,11.03
2023-02-12T18:14:00.753Z,13.03
2023-02-12T18:16:31.207Z,10.47
2023-02-12T18:18:59.867Z,9.93
2023-02-12T18:21:27.637Z,11.17
2023-02-12T18:23:55.569Z,11.00
2023-02-12T18:26:23.938Z,11.97
2023-02-12T18:28:53.817Z,10.23
2023-02-12T18:31:21.750Z,10.37
2023-02-12T18:33:49.183Z,11.57
2023-02-12T18:36:18.834Z,14.00
2023-02-12T18:38:48.368Z,9.40
2023-02-12T18:41:18.100Z,15.43
2023-02-12T18:43:46.284Z,9.70
2023-02-12T18:46:16.716Z,8.83
2023-02-12T18:48:44.703Z,10.33
2023-02-12T18:51:16.266Z,8.23
2023-02-12T18:53:44.186Z,12.10
2023-02-12T18:56:12.751Z,12.80
2023-02-12T18:58:40.820Z,12.30
2023-02-12T19:01:17.126Z,14.63
2023-02-12T19:03:45.157Z,11.77
2023-02-12T19:06:12.890Z,11.87
2023-02-12T19:08:40.598Z,13.03
2023-02-12T19:11:08.474Z,9.97
2023-02-12T19:13:36.181Z,9.60
2023-02-12T19:16:07.865Z,11.10
2023-02-12T19:18:36.792Z,15.53
2023-02-12T19:21:07.058Z,12.97
2023-02-12T19:23:34.583Z,10.50
2023-02-12T19:26:05.885Z,9.80
2023-02-12T19:28:34.351Z,13.43
2023-02-12T19:31:10.608Z,20.57
2023-02-12T19:33:40.828Z,12.03
2023-02-12T19:36:09.340Z,13.90
2023-02-12T19:38:37.124Z,13.50
2023-02-12T19:41:05.470Z,15.33
2023-02-12T19:43:33.016Z,18.30
2023-02-12T19:46:04.089Z,10.93
2023-02-12T19:48:31.633Z,9.90
2023-02-12T19:51:00.440Z,10.70
2023-02-12T19:53:28.727Z,11.27
2023-02-12T19:55:56.708Z,12.43
2023-02-12T19:58:24.196Z,9.57
2023-02-12T20:00:51.747Z,8.80
2023-02-12T20:03:19.952Z,9.47
2023-02-12T20:05:52.191Z,10.10
2023-02-12T20:08:21.049Z,8.90
2023-02-12T20:10:48.527Z,17.93
2023-02-12T20:13:18.824Z,8.43
2023-02-12T20:15:46.479Z,10.10
2023-02-12T20:18:15.972Z,8.90
2023-02-12T20:20:43.581Z,10.67
2023-02-12T20:23:11.034Z,8.93
2023-02-12T20:25:44.788Z,13.93
2023-02-12T20:28:12.343Z,12.30
2023-02-12T20:30:41.795Z,12.80
2023-02-12T20:33:10.170Z,13.47
2023-02-12T20:35:38.169Z,13.40
2023-02-12T20:38:06.094Z,12.73
2023-02-12T20:40:33.985Z,14.70
2023-02-12T20:43:03.878Z,15.23
2023-02-12T20:45:31.753Z,15.67
2023-02-12T20:47:59.424Z,14.83
2023-02-12T20:50:27.199Z,14.10
2023-02-12T20:52:54.800Z,23.63
2023-02-12T20:55:23.696Z,27.83
2023-02-12T20:57:51.111Z,19.90
2023-02-12T21:00:21.672Z,19.07
2023-02-12T21:02:49.368Z,18.17
2023-02-12T21:05:17.062Z,20.77
2023-02-12T21:07:45.559Z,28.23
2023-02-12T21:10:12.988Z,26.03
2023-02-12T21:12:40.630Z,23.87
2023-02-12T21:15:08.756Z,82.03
2023-02-12T21:17:37.621Z,45.53
2023-02-12T21:20:06.423Z,23.87
2023-02-12T21:22:33.849Z,24.50
2023-02-12T21:25:01.265Z,28.40
2023-02-12T21:27:28.664Z,26.33
2023-02-12T21:29:56.061Z,26.00
2023-02-12T21:32:23.561Z,28.63
2023-02-12T21:34:52.395Z,27.43
2023-02-12T21:37:19.829Z,26.30
2023-02-12T21:39:47.232Z,25.43
2023-02-12T21:42:14.642Z,30.90
2023-02-12T21:44:42.088Z,30.20
2023-02-12T21:47:09.766Z,28.83
2023-02-12T21:49:37.333Z,23.60
2023-02-12T21:52:07.120Z,27.10
2023-02-12T21:54:34.797Z,30.40
2023-02-12T21:57:02.254Z,28.33
2023-02-12T21:59:32.122Z,31.00
2023-02-12T22:02:00.722Z,28.73
2023-02-12T22:04:28.734Z,30.63
2023-02-12T22:06:56.545Z,32.87
2023-02-12T22:09:25.498Z,37.83
2023-02-12T22:11:53.437Z,30.23
2023-02-12T22:14:21.980Z,32.97
2023-02-12T22:16:49.961Z,32.70
2023-02-12T22:19:17.655Z,35.53
2023-02-12T22:21:45.486Z,31.60
2023-02-12T22:24:15.168Z,29.03
2023-02-12T22:26:44.836Z,31.60
2023-02-12T22:29:14.073Z,33.03
2023-02-12T22:31:43.324Z,33.27
2023-02-12T22:34:13.237Z,33.30
2023-02-12T22:36:41.990Z,35.00
2023-02-12T22:39:10.988Z,32.23
2023-02-12T22:41:38.711Z,36.90
2023-02-12T22:44:07.567Z,36.47
2023-02-12T22:46:36.185Z,37.00
2023-02-12T22:49:03.770Z,36.47
2023-02-12T22:51:33.369Z,38.83
2023-02-12T22:54:01.662Z,34.13
2023-02-12T22:56:29.317Z,40.73
2023-02-12T22:58:58.066Z,32.40
2023-02-12T23:01:27.243Z,35.27
2023-02-12T23:03:54.820Z,34.73
2023-02-12T23:06:23.841Z,40.43
2023-02-12T23:08:52.264Z,40.33
2023-02-12T23:11:20.423Z,38.47
2023-02-12T23:13:48.504Z,39.77
2023-02-12T23:16:16.194Z,40.07
2023-02-12T23:18:45.150Z,39.83
2023-02-12T23:21:12.607Z,36.73
2023-02-12T23:23:40.056Z,46.27
2023-02-12T23:26:07.814Z,43.43
2023-02-12T23:28:35.305Z,37.80
2023-02-12T23:31:03.368Z,37.13
2023-02-12T23:33:30.953Z,34.93
2023-02-12T23:36:00.042Z,37.67
2023-02-12T23:38:27.577Z,35.80
2023-02-12T23:40:55.123Z,33.00
2023-02-12T23:43:22.659Z,31.43
2023-02-12T23:45:50.276Z,30.47
2023-02-12T23:48:17.776Z,32.10
2023-02-12T23:50:49.448Z,31.27
2023-02-12T23:53:19.454Z,27.97
2023-02-12T23:55:49.803Z,25.27
2023-02-12T23:58:17.302Z,25.10
